Tiempo atmosférico en la estación meteorológica de Jaraicejo, Cáceres (510 m.)



Fecha
DESCASC
Temp. máxima en grados centígrados (hora)
DESCASC
Temp. mínima en grados centígrados (hora)
DESCASC
Temp. media en grados centígrados
DESCASC
Racha de viento máxima en m/sg (hora)
DESCASC
Velocidad máxima media en intervalos de 10 minutos(hora)
DESCASC
Precipitaciones diarias en mm
DESCASC
Precipitaciones de 00:00 a 06:00 en mm
DESCASC
Precipitaciones de 06:00 a 12:00 en mm
DESCASC
Precipitaciones de 12:00 a 18:00 en mm
DESCASC
Precipitaciones de 18:00 a 24:00 en mm
DESCASC
10-11-2019 10.7 (12:00) 6.6 (00:00) 8.6 12.78 (15:00) 6.67 (12:20) 0 0 0 0 0
09-11-2019 11.5 (14:30) 3.1 (00:00) 7.3 7.5 (00:10) 5 (14:10) 7 0 0 4.8 2.2
23-10-2019 11.5 (15:10) 7.9 (00:00) 9.7 9.17 (15:40) 5.56 (04:20) 3 0.2 1.2 1.4 0.2
08-11-2019 12.8 (14:50) 3.5 (00:00) 8.2 11.39 (16:40) 6.67 (12:50) 0 0 0 0 0
07-11-2019 13.7 (16:10) 5.5 (00:00) 9.6 12.78 (10:40) 6.39 (11:00) 3 3 0 0 0
12-11-2019 14.2 (15:40) 5.9 (00:00) 10 9.44 (23:30) 5.56 (21:50) 0 0 0 0 0
20-10-2019 14.3 (16:50) 8.7 (00:00) 11.5 8.89 (01:00) 5.83 (01:00) 0.2 0 0 0.2 0
11-11-2019 14.5 (15:50) 7.7 (00:30) 11.1 8.61 (18:00) 5.56 (20:50) 0 0 0 0 0
05-11-2019 14.8 (15:30) 7.1 (00:00) 11 10.83 (16:50) 5 (13:20) 0 0 0 0 0
06-11-2019 15.1 (15:00) 6.4 (00:00) 10.8 10.28 (12:30) 5.83 (14:30) 0.6 0 0 0 0.6
21-10-2019 15.8 (15:20) 6.7 (00:00) 11.3 6.67 (16:00) 5.28 (23:40) 0.8 0 0 0.8 0
04-11-2019 16 (15:30) 9.9 (00:00) 12.9 15.28 (15:40) 10 (16:50) 8.2 0.2 3 1 4
19-10-2019 16.2 (18:40) 10.9 (00:00) 13.6 12.22 (19:30) 7.5 (19:30) 4.8 0 0 0.6 4.2
17-10-2019 16.2 (18:40) 11.5 (00:00) 13.9 6.67 (23:59) 4.72 (23:59) 6.6 0 5 0.4 1.2
02-11-2019 16.7 (13:40) 13.1 (00:00) 14.9 11.39 (10:40) 7.5 (10:20) 5.6 0 0.6 5 0
22-10-2019 17.1 (16:40) 8.8 (00:00) 13 11.39 (11:40) 7.78 (06:30) 0 0 0 0 0
03-11-2019 17.2 (15:20) 12.7 (00:00) 15 15.56 (13:20) 7.22 (13:20) 0 0 0 0 0
15-10-2019 17.6 (17:10) 6.2 (00:00) 11.9 6.39 (18:10) 2.78 (17:10) 0 0 0 0 0
24-10-2019 18.2 (17:00) 6.9 (00:00) 12.6 6.39 (15:30) 3.33 (15:40) 0 0 0 0 0
14-10-2019 19.4 (01:40) 9.2 (00:00) 14.3 12.5 (12:30) 7.5 (13:50) 11.6 0 3.2 7 1.4
16-10-2019 19.6 (17:30) 9.4 (00:00) 14.5 7.78 (14:50) 3.89 (15:10) 0 0 0 0 0
18-10-2019 19.8 (17:20) 13.8 (00:00) 16.8 10.83 (15:10) 7.5 (15:20) 1.4 0 1.4 0 0
28-10-2019 20 (16:00) 13.2 (00:00) 16.6 5.28 (11:50) 3.06 (12:00) 0 0 0 0 0
30-10-2019 20.2 (12:40) 13.6 (00:00) 16.9 6.67 (14:30) 3.33 (21:30) 0 0 0 0 0
31-10-2019 21.7 (15:20) 15.5 (06:40) 18.6 7.5 (18:10) 3.61 (15:10) 0.2 0.2 0 0 0
01-11-2019 21.8 (15:20) 15.5 (00:00) 18.6 11.39 (17:50) 5.83 (16:00) 0 0 0 0 0
25-10-2019 21.9 (16:00) 9.8 (00:00) 15.8 6.67 (09:50) 5.28 (09:40) 0 0 0 0 0
29-10-2019 22.4 (16:10) 14 (00:00) 18.2 7.78 (13:40) 2.78 (12:40) 0.4 0 0.2 0.2 0
26-10-2019 25.5 (17:20) 14.4 (00:00) 19.9 6.67 (12:00) 3.89 (00:10) 0 0 0 0 0
27-10-2019 25.8 (14:20) 15.2 (00:00) 20.5 5.83 (05:20) 4.72 (05:20) 0 0 0 0 0

Gráficas

Temp. máximas Temp. mínimas Temp. medias Precipitaciones Rachas de viento máximas Velocidades máximas media en intervalos de 10 minutos

Datos horarios

Fecha y hora oficial Temperatura (ºC) Velocidad del viento (km/h) Dirección del viento Racha (km/h) Dirección de racha Precipitación (mm) Presión (hPa) Tendencia (hPa) Humedad (%)
2019-11-12 23:00:00 10.9 16 Sudoeste 31 Sudoeste 0 -- -- 90
2019-11-12 22:00:00 10.8 17 Sudoeste 31 Sudoeste 0 -- -- 87
2019-11-12 21:00:00 11.6 13 Sudoeste 26 Sudoeste 0 -- -- 79
2019-11-12 20:00:00 12.1 12 Oeste 26 Sudoeste 0 -- -- 70
2019-11-12 19:00:00 12.4 8 Oeste 20 Sudoeste 0 -- -- 67
2019-11-12 18:00:00 13.1 10 Oeste 22 Oeste 0 -- -- 60
2019-11-12 17:00:00 13.5 12 Oeste 28 Oeste 0 -- -- 56
2019-11-12 16:00:00 13.6 15 Noroeste 29 Noroeste 0 -- -- 54
2019-11-12 15:00:00 14 14 Oeste 32 Noroeste 0 -- -- 50
2019-11-12 14:00:00 13.3 11 Noroeste 25 Oeste 0 -- -- 52
2019-11-12 13:00:00 12.2 10 Noroeste 19 Oeste 0 -- -- 58
2019-11-12 12:00:00 11.1 8 Noroeste 22 Oeste 0 -- -- 64
2019-11-12 11:00:00 9.5 3 Sudoeste 10 Sur 0 -- -- 78
2019-11-12 10:00:00 7.7 4 Sudeste 10 Sur 0 -- -- 87
2019-11-12 09:00:00 6.4 4 Noroeste 8 Norte 0 -- -- 83
2019-11-12 08:00:00 6.3 4 Noroeste 9 Oeste 0 -- -- 86
2019-11-12 07:00:00 6.1 4 Oeste 8 Oeste 0 -- -- 90
2019-11-12 06:00:00 6.2 3 Noroeste 5 Noroeste 0 -- -- 92
2019-11-12 05:00:00 6.5 0 Calma 9 Sudeste 0 -- -- 94
2019-11-12 04:00:00 6.6 3 Nordeste 9 Sudeste 0 -- -- 92
2019-11-12 03:00:00 7.5 0 Calma 4 Oeste 0 -- -- 89
2019-11-12 02:00:00 7.7 4 Noroeste 12 Norte 0 -- -- 88
2019-11-12 01:00:00 8.1 4 Norte 15 Noroeste 0 -- -- 87
2019-11-12 00:00:00 9 5 Norte 18 Noroeste 0 -- -- 85
2019-11-11 23:00:00 10.2 12 Noroeste 22 Noroeste 0 -- -- 82
2019-11-11 22:00:00 10.9 14 Norte 28 Noroeste 0 -- -- 81
2019-11-11 21:00:00 11.6 20 Noroeste 30 Noroeste 0 -- -- 77
2019-11-11 20:00:00 11.7 14 Noroeste 21 Noroeste 0 -- -- 79
2019-11-11 19:00:00 12 2 Oeste 27 Noroeste 0 -- -- 78
2019-11-11 18:00:00 13.3 19 Noroeste 31 Noroeste 0 -- -- 77
2019-11-11 17:00:00 14.3 8 Noroeste 30 Noroeste 0 -- -- 75
2019-11-11 16:00:00 14.3 14 Noroeste 30 Noroeste 0 -- -- 81
2019-11-11 15:00:00 13.4 7 Oeste 20 Sudoeste 0 -- -- 89
2019-11-11 14:00:00 11 8 Sudoeste 17 Sudoeste 0 -- -- 97
2019-11-11 13:00:00 9.9 7 Sudoeste 12 Sudoeste 0 -- -- 98
2019-11-11 12:00:00 9.4 6 Sudoeste 11 Sudoeste 0 -- -- 99
2019-11-11 11:00:00 8.9 7 Sudoeste 10 Sudoeste 0 -- -- 99
2019-11-11 10:00:00 8.6 5 Sudoeste 11 Sur 0 -- -- 99
2019-11-11 09:00:00 8.4 5 Sudoeste 16 Sudoeste 0 -- -- 99
2019-11-11 08:00:00 8.2 6 Sudoeste 15 Sudoeste 0 -- -- 97
2019-11-11 07:00:00 8.1 6 Sudoeste 12 Sudoeste 0 -- -- 96
2019-11-11 06:00:00 8.1 8 Sudoeste 13 Sudoeste 0 -- -- 95
2019-11-11 05:00:00 7.9 5 Sur 9 Sudoeste 0 -- -- 93
2019-11-11 04:00:00 7.8 3 Sur 6 Sur 0 -- -- 91
2019-11-11 03:00:00 7.8 3 Sur 9 Sur 0 -- -- 89
2019-11-11 02:00:00 7.8 4 Sur 19 Oeste 0 -- -- 88
2019-11-11 01:00:00 7.8 9 Oeste 21 Oeste 0 -- -- 84
2019-11-11 00:00:00 7.8 11 Oeste 21 Noroeste 0 -- -- 83
2019-11-10 23:00:00 7.8 8 Oeste 22 Oeste 0 -- -- 82
2019-11-10 22:00:00 7.8 12 Oeste 34 Noroeste 0 -- -- 80
2019-11-10 21:00:00 7.8 12 Noroeste 25 Noroeste 0 -- -- 79
2019-11-10 20:00:00 8 12 Noroeste 26 Noroeste 0 -- -- 79
2019-11-10 19:00:00 8.6 15 Noroeste 29 Noroeste 0 -- -- 77
2019-11-10 18:00:00 8.8 13 Noroeste 31 Noroeste 0 -- -- 73
2019-11-10 17:00:00 9.3 9 Oeste 36 Noroeste 0 -- -- 75
2019-11-10 16:00:00 9.5 20 Noroeste 43 Noroeste 0 -- -- 68
2019-11-10 15:00:00 9.9 21 Noroeste 46 Noroeste 0 -- -- 66
2019-11-10 14:00:00 10.2 21 Noroeste 37 Noroeste 0 -- -- 60
2019-11-10 13:00:00 10.4 18 Noroeste 40 Noroeste 0 -- -- 56
2019-11-10 12:00:00 10.7 18 Noroeste 36 Noroeste 0 -- -- 60
2019-11-10 11:00:00 9.4 13 Noroeste 25 Noroeste 0 -- -- 66
2019-11-10 10:00:00 7.8 6 Noroeste 17 Norte 0 -- -- 73
2019-11-10 09:00:00 7.1 12 Norte 27 Noroeste 0 -- -- 74
2019-11-10 08:00:00 6.6 12 Noroeste 27 Noroeste 0 -- -- 73
2019-11-10 07:00:00 6.7 14 Noroeste 24 Norte 0 -- -- 75
2019-11-10 06:00:00 6.9 9 Noroeste 33 Noroeste 0 -- -- 77
2019-11-10 05:00:00 7.2 14 Noroeste 30 Noroeste 0 -- -- 81
2019-11-10 04:00:00 7.7 14 Noroeste 32 Noroeste 0 -- -- 87
2019-11-10 03:00:00 7.2 12 Noroeste 21 Noroeste 0 -- -- 93
2019-11-10 02:00:00 7.4 6 Noroeste 16 Oeste 0 -- -- 94
2019-11-10 01:00:00 8.1 8 Noroeste 17 Oeste 0 -- -- 96
2019-11-10 00:00:00 8.8 9 Noroeste 21 Noroeste 0 -- -- 98
2019-11-09 23:00:00 9.2 12 Noroeste 20 Noroeste 0 -- -- 98
2019-11-09 22:00:00 10.1 7 Oeste 21 Oeste 0 -- -- 99
2019-11-09 21:00:00 10.5 7 Oeste 17 Oeste 0.2 -- -- 99
2019-11-09 20:00:00 10.4 8 Oeste 17 Sudoeste 0.2 -- -- 99
2019-11-09 19:00:00 10.1 8 Sudoeste 20 Sudoeste 1.8 -- -- 98
2019-11-09 18:00:00 9.8 10 Sudoeste 19 Oeste 1.6 -- -- 97
2019-11-09 17:00:00 9.7 6 Sudoeste 12 Sudoeste 2.6 -- -- 93
2019-11-09 16:00:00 10.4 9 Sudoeste 18 Sudoeste 0.6 -- -- 85
2019-11-09 15:00:00 11.2 7 Sudoeste 24 Sudoeste 0 -- -- 74
2019-11-09 14:00:00 11.2 14 Sudoeste 22 Sudoeste 0 -- -- 62
2019-11-09 13:00:00 11 10 Oeste 21 Oeste 0 -- -- 66
2019-11-09 12:00:00 10 9 Oeste 18 Oeste 0 -- -- 69
2019-11-09 11:00:00 8.8 5 Sudoeste 15 Sudoeste 0 -- -- 75
2019-11-09 10:00:00 6.3 4 Sudoeste 10 Sudoeste 0 -- -- 80
2019-11-09 09:00:00 4.2 5 Sudoeste 11 Oeste 0 -- -- 88
2019-11-09 08:00:00 3.2 4 Sur 12 Sudoeste 0 -- -- 88
2019-11-09 07:00:00 3.4 4 Sudoeste 19 Noroeste 0 -- -- 88
2019-11-09 06:00:00 3.8 6 Oeste 14 Oeste 0 -- -- 87
2019-11-09 05:00:00 3.9 3 Sur 12 Sudeste 0 -- -- 85
2019-11-09 04:00:00 4.4 3 Oeste 14 Oeste 0 -- -- 83
2019-11-09 03:00:00 4.9 5 Oeste 16 Oeste 0 -- -- 81
2019-11-09 02:00:00 5.6 4 Oeste 14 Oeste 0 -- -- 77
2019-11-09 01:00:00 6.1 5 Oeste 27 Noroeste 0 -- -- 74
2019-11-09 00:00:00 6.3 10 Noroeste 21 Noroeste 0 -- -- 73
2019-11-08 23:00:00 6.9 11 Noroeste 25 Oeste 0 -- -- 69
2019-11-08 22:00:00 6.7 6 Sudeste 18 Oeste 0 -- -- 71
2019-11-08 21:00:00 7.7 8 Noroeste 18 Noroeste 0 -- -- 65
2019-11-08 20:00:00 8.8 6 Oeste 26 Noroeste 0 -- -- 59
2019-11-08 19:00:00 9.8 18 Noroeste 40 Noroeste 0 -- -- 55
2019-11-08 18:00:00 10.6 20 Noroeste 37 Noroeste 0 -- -- 53
2019-11-08 17:00:00 12 19 Noroeste 41 Noroeste 0 -- -- 51
2019-11-08 16:00:00 12.4 19 Noroeste 37 Oeste 0 -- -- 51
2019-11-08 15:00:00 12.4 17 Oeste 31 Oeste 0 -- -- 49
2019-11-08 14:00:00 11.4 18 Noroeste 37 Noroeste 0 -- -- 54
2019-11-08 13:00:00 10.2 19 Noroeste 37 Noroeste 0 -- -- 58
2019-11-08 12:00:00 9.4 14 Noroeste 34 Noroeste 0 -- -- 62
2019-11-08 11:00:00 8 13 Noroeste 28 Noroeste 0 -- -- 67
2019-11-08 10:00:00 6.4 14 Oeste 31 Oeste 0 -- -- 77
2019-11-08 09:00:00 4.3 4 Oeste 11 Oeste 0 -- -- 89
2019-11-08 08:00:00 3.5 7 Noroeste 20 Noroeste 0 -- -- 86
2019-11-08 07:00:00 4.1 10 Oeste 22 Oeste 0 -- -- 84
2019-11-08 06:00:00 4.1 8 Noroeste 22 Noroeste 0 -- -- 89
2019-11-08 05:00:00 4.1 5 Oeste 13 Sudoeste 0 -- -- 95
2019-11-08 04:00:00 4.5 5 Oeste 11 Oeste 0 -- -- 95
2019-11-08 03:00:00 4.9 3 Oeste 12 Oeste 0 -- -- 91
2019-11-08 02:00:00 5.1 6 Oeste 13 Oeste 0 -- -- 92
2019-11-08 01:00:00 5 6 Oeste 13 Oeste 0 -- -- 90
2019-11-08 00:00:00 5.5 6 Oeste 14 Sudoeste 0 -- -- 87
2019-11-07 23:00:00 6.6 5 Oeste 24 Noroeste 0 -- -- 81
2019-11-07 22:00:00 7.1 10 Oeste 28 Oeste 0 -- -- 79
2019-11-07 21:00:00 8.1 13 Oeste 39 Oeste 0 -- -- 72
2019-11-07 20:00:00 8.7 11 Oeste 31 Noroeste 0 -- -- 74
2019-11-07 19:00:00 8.6 13 Noroeste 36 Noroeste 0 -- -- 79
2019-11-07 18:00:00 11.7 18 Oeste 38 Oeste 0 -- -- 58
2019-11-07 17:00:00 13.3 17 Oeste 36 Oeste 0 -- -- 50
2019-11-07 16:00:00 13.1 16 Oeste 39 Oeste 0 -- -- 55
2019-11-07 15:00:00 13 15 Oeste 40 Oeste 0 -- -- 54
2019-11-07 14:00:00 12.5 14 Oeste 42 Noroeste 0 -- -- 57
2019-11-07 13:00:00 12 15 Noroeste 37 Noroeste 0 -- -- 58
2019-11-07 12:00:00 10.9 22 Noroeste 40 Noroeste 0 -- -- 71
2019-11-07 11:00:00 11.1 23 Noroeste 46 Noroeste 0 -- -- 70
2019-11-07 10:00:00 9.9 17 Noroeste 38 Noroeste 0 -- -- 80
2019-11-07 09:00:00 9.5 14 Noroeste 30 Noroeste 0 -- -- 95
2019-11-07 08:00:00 11.5 10 Oeste 22 Oeste 0 -- -- 100
2019-11-07 07:00:00 11.7 8 Oeste 21 Sudoeste 0 -- -- 100
2019-11-07 06:00:00 11.6 8 Oeste 20 Sudoeste 0.2 -- -- 100
2019-11-07 05:00:00 11.5 9 Sudoeste 23 Sudoeste 0.2 -- -- 100
2019-11-07 04:00:00 11.2 15 Sudoeste 26 Sudoeste 0.8 -- -- 100
2019-11-07 03:00:00 11 16 Sudoeste 26 Sudoeste 0.6 -- -- 99
2019-11-07 02:00:00 10.9 15 Sudoeste 22 Sudoeste 0.6 -- -- 99
2019-11-07 01:00:00 10.8 12 Sudoeste 23 Sudoeste 0.6 -- -- 99
2019-11-07 00:00:00 10.8 14 Sudoeste 24 Sudoeste 0.6 -- -- 97
2019-11-06 23:00:00 11.1 10 Sudoeste 22 Sudoeste 0 -- -- 93
2019-11-06 22:00:00 11.6 12 Sudoeste 23 Sudoeste 0 -- -- 86
2019-11-06 21:00:00 11.4 9 Sudoeste 15 Sudoeste 0 -- -- 80
2019-11-06 20:00:00 12 7 Sudoeste 15 Sudoeste 0 -- -- 75
2019-11-06 19:00:00 12.3 6 Oeste 18 Oeste 0 -- -- 71
2019-11-06 18:00:00 12.8 7 Oeste 20 Noroeste 0 -- -- 65
2019-11-06 17:00:00 13.7 10 Oeste 23 Sudoeste 0 -- -- 61
2019-11-06 16:00:00 13.6 9 Noroeste 27 Noroeste 0 -- -- 62
2019-11-06 15:00:00 15.1 14 Oeste 34 Oeste 0 -- -- 56
2019-11-06 14:00:00 14.3 20 Noroeste 36 Oeste 0 -- -- 56
2019-11-06 13:00:00 12.7 15 Noroeste 37 Noroeste 0 -- -- 63
2019-11-06 12:00:00 11.4 12 Noroeste 30 Oeste 0 -- -- 68
2019-11-06 11:00:00 10.1 7 Oeste 21 Noroeste 0 -- -- 75
2019-11-06 10:00:00 9.5 8 Noroeste 22 Noroeste 0 -- -- 76
2019-11-06 09:00:00 7.6 3 Oeste 10 Sudoeste 0 -- -- 87
2019-11-06 08:00:00 7.1 6 Sudoeste 16 Oeste 0 -- -- 88
2019-11-06 07:00:00 6.6 4 Sur 14 Sudoeste 0 -- -- 89
2019-11-06 06:00:00 7.8 7 Oeste 25 Noroeste 0 -- -- 84
2019-11-06 05:00:00 7.5 8 Oeste 19 Sudoeste 0 -- -- 87
2019-11-06 04:00:00 7.6 4 Sudoeste 23 Noroeste 0 -- -- 87
2019-11-06 03:00:00 8.2 14 Noroeste 27 Noroeste 0 -- -- 86
2019-11-06 02:00:00 7.9 8 Sur 26 Oeste 0 -- -- 90
2019-11-06 01:00:00 8.5 6 Oeste 22 Oeste 0 -- -- 85
2019-11-06 00:00:00 9 7 Oeste 22 Oeste 0 -- -- 82
2019-11-05 23:00:00 9.2 8 Noroeste 20 Oeste 0 -- -- 83
2019-11-05 22:00:00 10 9 Oeste 20 Oeste 0 -- -- 77
2019-11-05 21:00:00 10.6 8 Oeste 22 Oeste 0 -- -- 72
2019-11-05 20:00:00 11.7 10 Oeste 31 Oeste 0 -- -- 68
2019-11-05 19:00:00 12.7 18 Noroeste 32 Noroeste 0 -- -- 61
2019-11-05 18:00:00 13.4 15 Oeste 33 Oeste 0 -- -- 62
2019-11-05 17:00:00 14.7 17 Oeste 39 Noroeste 0 -- -- 57
2019-11-05 16:00:00 14.5 11 Oeste 32 Oeste 0 -- -- 61
2019-11-05 15:00:00 14.1 13 Oeste 32 Oeste 0 -- -- 66
2019-11-05 14:00:00 13.7 11 Oeste 33 Noroeste 0 -- -- 67
2019-11-05 13:00:00 13.3 15 Oeste 33 Noroeste 0 -- -- 72
2019-11-05 12:00:00 12.1 13 Oeste 29 Sudoeste 0 -- -- 87
2019-11-05 11:00:00 10.2 13 Sudoeste 24 Sudoeste 0 -- -- 94
2019-11-05 10:00:00 8.4 14 Sudoeste 25 Sudoeste 0 -- -- 100
2019-11-05 09:00:00 7.3 9 Sudoeste 19 Sudoeste 0 -- -- 100
2019-11-05 08:00:00 7.2 10 Sudoeste 17 Sudoeste 0 -- -- 100
2019-11-05 07:00:00 7.2 8 Sudoeste 18 Oeste 0 -- -- 99
2019-11-05 06:00:00 7.5 11 Sudoeste 18 Sudoeste 0 -- -- 98
2019-11-05 05:00:00 7.6 6 Oeste 18 Oeste 0 -- -- 97
2019-11-05 04:00:00 8.3 9 Oeste 20 Sudoeste 0 -- -- 95
2019-11-05 03:00:00 8.7 8 Sudoeste 26 Oeste 0 -- -- 95
2019-11-05 02:00:00 9.1 11 Sudoeste 27 Sudoeste 0 -- -- 95
2019-11-05 01:00:00 9.7 10 Oeste 25 Sudoeste 0 -- -- 94
2019-11-05 00:00:00 9.9 12 Sudoeste 27 Oeste 0 -- -- 95
2019-11-04 23:00:00 10.3 12 Oeste 33 Sudoeste 0 -- -- 94
2019-11-04 22:00:00 10.9 15 Oeste 38 Oeste 0 -- -- 93
2019-11-04 21:00:00 11.7 18 Oeste 37 Sudoeste 0 -- -- 95
2019-11-04 20:00:00 12.5 18 Oeste 39 Sudoeste 0.2 -- -- 97
2019-11-04 19:00:00 12.6 18 Oeste 33 Oeste 3.8 -- -- 97
2019-11-04 18:00:00 13.4 13 Sudoeste 50 Sudoeste 1 -- -- 94
2019-11-04 17:00:00 15.5 36 Sudoeste 55 Sudoeste 0 -- -- 73
2019-11-04 16:00:00 15.2 26 Sudoeste 55 Sudoeste 0 -- -- 78
2019-11-04 15:00:00 15.8 35 Sudoeste 55 Sudoeste 0 -- -- 72
2019-11-04 14:00:00 15.3 31 Sudoeste 54 Sudoeste 0 -- -- 78
2019-11-04 13:00:00 14.4 35 Sudoeste 48 Sudoeste 0 -- -- 85
2019-11-04 12:00:00 14.1 25 Sudoeste 41 Sudoeste 0 -- -- 86
2019-11-04 11:00:00 13.6 30 Sudoeste 44 Sudoeste 0 -- -- 93
2019-11-04 10:00:00 12.5 20 Sudoeste 40 Sudoeste 0.2 -- -- 99
2019-11-04 09:00:00 12.4 19 Sudoeste 33 Sudoeste 2.4 -- -- 99
2019-11-04 08:00:00 12.3 15 Sudoeste 36 Sudoeste 0.4 -- -- 99
2019-11-04 07:00:00 12.1 16 Sudoeste 28 Sudoeste 0 -- -- 98
2019-11-04 06:00:00 12.1 14 Sudoeste 27 Sudoeste 0 -- -- 97
2019-11-04 05:00:00 12.2 14 Sudoeste 30 Sudoeste 0 -- -- 97
2019-11-04 04:00:00 12.6 19 Sudoeste 32 Sudoeste 0.2 -- -- 97
2019-11-04 03:00:00 13.1 22 Sudoeste 32 Sudoeste 0 -- -- 93
2019-11-04 02:00:00 13 19 Sudoeste 31 Sudoeste 0 -- -- 91
2019-11-04 01:00:00 12.9 22 Sudoeste 33 Sudoeste 0 -- -- 91
2019-11-04 00:00:00 13.4 14 Sudoeste 36 Sudoeste 0 -- -- 89
2019-11-03 23:00:00 13.7 18 Sudoeste 29 Sudoeste 0 -- -- 86
2019-11-03 22:00:00 13.9 14 Sudoeste 30 Sudoeste 0 -- -- 82
2019-11-03 21:00:00 14.2 12 Oeste 32 Oeste 0 -- -- 77
2019-11-03 20:00:00 15.1 13 Oeste 32 Sudoeste 0 -- -- 73
2019-11-03 19:00:00 15.6 11 Oeste 23 Sudoeste 0 -- -- 65
2019-11-03 18:00:00 15.7 6 Oeste 25 Oeste 0 -- -- 62
2019-11-03 17:00:00 16 13 Noroeste 37 Noroeste 0 -- -- 58
2019-11-03 16:00:00 16.4 22 Noroeste 45 Oeste 0 -- -- 55
2019-11-03 15:00:00 16.7 22 Noroeste 46 Noroeste 0 -- -- 56
2019-11-03 14:00:00 16.5 18 Noroeste 56 Noroeste 0 -- -- 55
2019-11-03 13:00:00 17.1 20 Noroeste 45 Oeste 0 -- -- 55
2019-11-03 12:00:00 15 20 Noroeste 38 Oeste 0 -- -- 66
2019-11-03 11:00:00 15.2 16 Oeste 40 Sudoeste 0 -- -- 84
2019-11-03 10:00:00 13.9 16 Oeste 40 Oeste 0 -- -- 92
2019-11-03 09:00:00 13.6 17 Oeste 43 Oeste 0 -- -- 93
2019-11-03 08:00:00 13.4 19 Sudoeste 45 Sudoeste 0 -- -- 94
2019-11-03 07:00:00 13.2 21 Sudoeste 43 Sudoeste 0 -- -- 94
2019-11-03 06:00:00 13.2 20 Sudoeste 39 Oeste 0 -- -- 92
2019-11-03 05:00:00 12.9 18 Sudoeste 37 Sudoeste 0 -- -- 91
2019-11-03 04:00:00 13 18 Sudoeste 41 Sudoeste 0 -- -- 91
2019-11-03 03:00:00 13 21 Sudoeste 40 Oeste 0 -- -- 91
2019-11-03 02:00:00 12.9 17 Oeste 42 Sudoeste 0 -- -- 92
2019-11-03 01:00:00 12.9 20 Sudoeste 35 Oeste 0 -- -- 91
2019-11-03 00:00:00 13.1 19 Sudoeste 39 Sudoeste 0 -- -- 90
2019-11-02 23:00:00 13.3 19 Sudoeste 34 Sudoeste 0 -- -- 92
2019-11-02 22:00:00 13.4 14 Sudoeste 31 Sudoeste 0 -- -- 90
2019-11-02 21:00:00 13.8 18 Sudoeste 33 Sudoeste 0 -- -- 89
2019-11-02 20:00:00 14 13 Sudoeste 29 Sudoeste 0 -- -- 90
2019-11-02 19:00:00 14.4 15 Sudoeste 30 Sudoeste 0 -- -- 96
2019-11-02 18:00:00 14.9 18 Oeste 33 Sudoeste 0.2 -- -- 94
2019-11-02 17:00:00 16 13 Oeste 32 Sudoeste 0 -- -- 93
2019-11-02 16:00:00 15.8 15 Sudoeste 31 Oeste 1.6 -- -- 97
2019-11-02 15:00:00 16.5 9 Sudoeste 25 Sudoeste 1.6 -- -- 97
2019-11-02 14:00:00 15.7 12 Oeste 30 Sudoeste 1.2 -- -- 92
2019-11-02 13:00:00 16 17 Sudoeste 32 Sudoeste 0.4 -- -- 92
2019-11-02 12:00:00 16.1 19 Sudoeste 33 Sudoeste 0.4 -- -- 89
2019-11-02 11:00:00 16.2 19 Sudoeste 41 Sudoeste 0.2 -- -- 87
2019-11-02 10:00:00 15.5 20 Sudoeste 30 Sudoeste 0 -- -- 93
2019-11-02 09:00:00 15 17 Sudoeste 28 Sudoeste 0 -- -- 97
2019-11-02 08:00:00 14.9 18 Sudoeste 30 Sudoeste 0 -- -- 97
2019-11-02 07:00:00 15.2 18 Sudoeste 30 Sudoeste 0 -- -- 96
2019-11-02 06:00:00 15.2 24 Sudoeste 36 Sudoeste 0 -- -- 96
2019-11-02 05:00:00 15.2 17 Sudoeste 30 Sudoeste 0 -- -- 96
2019-11-02 04:00:00 15.6 21 Sudoeste 40 Sudoeste 0 -- -- 94
2019-11-02 03:00:00 15.7 23 Sudoeste 34 Sudoeste 0 -- -- 93
2019-11-02 02:00:00 15.6 22 Sudoeste 32 Sudoeste 0 -- -- 94
2019-11-02 01:00:00 16 18 Sudoeste 26 Sudoeste 0 -- -- 94
2019-11-02 00:00:00 16 13 Sudoeste 30 Sudoeste 0 -- -- 94
2019-11-01 23:00:00 16.3 13 Sudoeste 27 Oeste 0 -- -- 91
2019-11-01 22:00:00 16.8 13 Sudoeste 36 Sudoeste 0 -- -- 87
2019-11-01 21:00:00 17 19 Sudoeste 33 Sudoeste 0 -- -- 86
2019-11-01 20:00:00 17.9 15 Sudoeste 39 Sudoeste 0 -- -- 82
2019-11-01 19:00:00 18.5 15 Sudoeste 33 Oeste 0 -- -- 78
2019-11-01 18:00:00 19.4 17 Sudoeste 41 Sudoeste 0 -- -- 74
2019-11-01 17:00:00 20.1 17 Oeste 40 Sudoeste 0 -- -- 72
2019-11-01 16:00:00 21.2 21 Oeste 41 Sudoeste 0 -- -- 68
2019-11-01 15:00:00 21.2 17 Sudoeste 36 Oeste 0 -- -- 71
2019-11-01 14:00:00 19.5 18 Oeste 37 Oeste 0 -- -- 81
2019-11-01 13:00:00 20.1 17 Sudoeste 29 Sudoeste 0 -- -- 80
2019-11-01 12:00:00 18.3 12 Sudoeste 23 Oeste 0 -- -- 91
2019-11-01 11:00:00 17.1 10 Sudoeste 20 Oeste 0 -- -- 96
2019-11-01 10:00:00 16.5 10 Sudoeste 21 Sudoeste 0 -- -- 99
2019-11-01 09:00:00 16.3 8 Sudoeste 18 Sudoeste 0 -- -- 99
2019-11-01 08:00:00 16.1 7 Sudoeste 15 Sudoeste 0 -- -- 99
2019-11-01 07:00:00 16 8 Oeste 17 Oeste 0 -- -- 99
2019-11-01 06:00:00 15.8 6 Oeste 14 Sudoeste 0 -- -- 99
2019-11-01 05:00:00 15.5 8 Sudoeste 18 Sudoeste 0 -- -- 99
2019-11-01 04:00:00 15.5 3 Oeste 12 Oeste 0 -- -- 98
2019-11-01 03:00:00 15.6 4 Oeste 13 Oeste 0 -- -- 98
2019-11-01 02:00:00 15.9 3 Oeste 12 Oeste 0 -- -- 97
2019-11-01 01:00:00 16.3 5 Oeste 14 Oeste 0 -- -- 97
2019-11-01 00:00:00 16.6 3 Oeste 22 Oeste 0 -- -- 96
2019-10-31 23:00:00 17.2 7 Oeste 20 Sudoeste 0 -- -- 95
2019-10-31 22:00:00 17.4 5 Oeste 14 Sudoeste 0 -- -- 94
2019-10-31 21:00:00 17.5 4 Oeste 14 Oeste 0 -- -- 93
2019-10-31 20:00:00 17.4 3 Oeste 15 Oeste 0 -- -- 91
2019-10-31 19:00:00 18 7 Oeste 27 Oeste 0 -- -- 90
2019-10-31 18:00:00 19.5 11 Oeste 22 Oeste 0 -- -- 78
2019-10-31 17:00:00 21.1 9 Oeste 21 Sudoeste 0 -- -- 69
2019-10-31 16:00:00 21.1 11 Oeste 24 Sudoeste 0 -- -- 64
2019-10-31 15:00:00 21.5 9 Sudoeste 23 Sudoeste 0 -- -- 64
2019-10-31 14:00:00 20.2 9 Sudoeste 22 Sudoeste 0 -- -- 73
2019-10-31 13:00:00 18.4 7 Sudoeste 19 Oeste 0 -- -- 82
2019-10-31 12:00:00 17.7 9 Sudoeste 23 Sudoeste 0 -- -- 87
2019-10-31 11:00:00 17.2 9 Sudoeste 18 Sudoeste 0 -- -- 90
2019-10-31 10:00:00 16.3 6 Oeste 15 Sudoeste 0 -- -- 97
2019-10-31 09:00:00 15.6 5 Sudoeste 17 Sudoeste 0 -- -- 98
2019-10-31 08:00:00 15.5 6 Oeste 12 Sudoeste 0 -- -- 98
2019-10-31 07:00:00 15.5 5 Oeste 16 Oeste 0 -- -- 98
2019-10-31 06:00:00 15.6 6 Oeste 13 Oeste 0 -- -- 98
2019-10-31 05:00:00 15.9 5 Oeste 17 Sudoeste 0.2 -- -- 98
2019-10-31 04:00:00 16.1 6 Oeste 14 Sudoeste 0 -- -- 97
2019-10-31 03:00:00 16.4 5 Oeste 12 Sudoeste 0 -- -- 97
2019-10-31 02:00:00 16.4 4 Oeste 13 Oeste 0 -- -- 96
2019-10-31 01:00:00 16.3 4 Sudoeste 12 Sudoeste 0 -- -- 96
2019-10-31 00:00:00 16.2 7 Sudoeste 10 Sudoeste 0 -- -- 96
2019-10-30 23:00:00 16.3 5 Sur 11 Sudoeste 0 -- -- 95
2019-10-30 22:00:00 16.5 8 Sudoeste 18 Sudoeste 0 -- -- 93
2019-10-30 21:00:00 16.8 7 Sudoeste 11 Sudoeste 0 -- -- 89
2019-10-30 20:00:00 17.9 7 Sudoeste 12 Sudoeste 0 -- -- 80
2019-10-30 19:00:00 18 7 Sudoeste 12 Sudoeste 0 -- -- 78
2019-10-30 18:00:00 18.4 4 Sudoeste 12 Sudoeste 0 -- -- 76
2019-10-30 17:00:00 18.8 5 Sudoeste 14 Sur 0 -- -- 71
2019-10-30 16:00:00 18.6 8 Sudoeste 15 Sudoeste 0 -- -- 73
2019-10-30 15:00:00 18.1 4 Sudoeste 24 Oeste 0 -- -- 74
2019-10-30 14:00:00 19.7 8 Oeste 20 Sudoeste 0 -- -- 68
2019-10-30 13:00:00 20.1 7 Sudoeste 15 Oeste 0 -- -- 66
2019-10-30 12:00:00 19.4 5 Sudoeste 13 Sudoeste 0 -- -- 69
2019-10-30 11:00:00 18.2 5 Sur 9 Sur 0 -- -- 73
2019-10-30 10:00:00 16.9 4 Sur 8 Sur 0 -- -- 76
2019-10-30 09:00:00 15.4 4 Sudeste 8 Sudeste 0 -- -- 81
2019-10-30 08:00:00 13.7 5 Este 12 Sudeste 0 -- -- 87
2019-10-30 07:00:00 13.6 7 Sudeste 11 Sudeste 0 -- -- 86
2019-10-30 06:00:00 14 4 Sudeste 9 Sudeste 0 -- -- 84
2019-10-30 05:00:00 14.1 6 Sudeste 10 Sudeste 0 -- -- 83
2019-10-30 04:00:00 14.7 5 Sudeste 7 Este 0 -- -- 82
2019-10-30 03:00:00 14.9 5 Este 9 Este 0 -- -- 81
2019-10-30 02:00:00 15 6 Este 13 Este 0 -- -- 80
2019-10-30 01:00:00 14.9 7 Este 9 Este 0 -- -- 81
2019-10-30 00:00:00 14.9 5 Sudeste 8 Sudeste 0 -- -- 81
2019-10-29 23:00:00 15.2 0 Calma 4 Sudeste 0 -- -- 80
2019-10-29 22:00:00 15.6 0 Calma 12 Noroeste 0 -- -- 78
2019-10-29 21:00:00 15.3 8 Norte 13 Norte 0 -- -- 81
2019-10-29 20:00:00 16.7 9 Norte 14 Noroeste 0 -- -- 74
2019-10-29 19:00:00 17.2 7 Noroeste 13 Oeste 0 -- -- 70
2019-10-29 18:00:00 19.2 6 Oeste 18 Oeste 0 -- -- 62
2019-10-29 17:00:00 21.3 7 Oeste 19 Oeste 0 -- -- 55
2019-10-29 16:00:00 22.1 9 Oeste 22 Sudoeste 0 -- -- 52
2019-10-29 15:00:00 20.2 5 Oeste 17 Sudoeste 0 -- -- 60
2019-10-29 14:00:00 21 6 Oeste 28 Noroeste 0.2 -- -- 56
2019-10-29 13:00:00 20.2 8 Sudoeste 17 Sudoeste 0 -- -- 65
2019-10-29 12:00:00 18.5 8 Sudoeste 16 Sudoeste 0 -- -- 71
2019-10-29 11:00:00 17.3 7 Sudoeste 13 Sudoeste 0 -- -- 81
2019-10-29 10:00:00 15.1 4 Oeste 10 Oeste 0 -- -- 95
2019-10-29 09:00:00 14.6 5 Noroeste 10 Noroeste 0 -- -- 95
2019-10-29 08:00:00 14.8 0 Calma 6 Sudoeste 0.2 -- -- 95
2019-10-29 07:00:00 14.7 0 Calma 5 Sudoeste 0 -- -- 94
2019-10-29 06:00:00 14.4 0 Calma 8 Sudeste 0 -- -- 92
2019-10-29 05:00:00 14.1 5 Sudeste 7 Sudeste 0 -- -- 90
2019-10-29 04:00:00 14 2 Sudeste 4 Sudeste 0 -- -- 90
2019-10-29 03:00:00 14.5 2 Sur 4 Sur 0 -- -- 84
2019-10-29 02:00:00 14.6 2 Sur 5 Sur 0 -- -- 82
2019-10-29 01:00:00 14.5 4 Sudeste 8 Sudeste 0 -- -- 82
2019-10-29 00:00:00 14.7 6 Sudeste 9 Sudeste 0 -- -- 81
2019-10-28 23:00:00 14.6 4 Sudeste 8 Sudeste 0 -- -- 82
2019-10-28 22:00:00 15 3 Sudeste 6 Sudeste 0 -- -- 81
2019-10-28 21:00:00 14.7 2 Oeste 5 Oeste 0 -- -- 80
2019-10-28 20:00:00 15 2 Oeste 10 Sudoeste 0 -- -- 81
2019-10-28 19:00:00 16 6 Sudoeste 12 Sudoeste 0 -- -- 76
2019-10-28 18:00:00 17.7 3 Oeste 14 Sudoeste 0 -- -- 69
2019-10-28 17:00:00 19.1 6 Oeste 18 Sudoeste 0 -- -- 65
2019-10-28 16:00:00 20 7 Sudoeste 19 Sudoeste 0 -- -- 61
2019-10-28 15:00:00 19.8 5 Oeste 14 Oeste 0 -- -- 64
2019-10-28 14:00:00 19.3 8 Sudoeste 15 Sudoeste 0 -- -- 64
2019-10-28 13:00:00 18.5 7 Oeste 16 Oeste 0 -- -- 68
2019-10-28 12:00:00 17.5 11 Oeste 19 Sudoeste 0 -- -- 72
2019-10-28 11:00:00 16.5 5 Sur 12 Sudoeste 0 -- -- 82
2019-10-28 10:00:00 15 3 Sur 8 Sudeste 0 -- -- 82
2019-10-28 09:00:00 14.6 3 Sudeste 8 Sudeste 0 -- -- 88
2019-10-28 08:00:00 13.2 5 Sudeste 9 Sudeste 0 -- -- 88
2019-10-28 07:00:00 13.9 5 Sudeste 6 Sur 0 -- -- 84
2019-10-28 06:00:00 14.4 4 Sur 6 Sudeste 0 -- -- 82
2019-10-28 05:00:00 15 5 Sudeste 8 Sudeste 0 -- -- 76
2019-10-28 04:00:00 15.7 5 Sur 11 Sur 0 -- -- 71
2019-10-28 03:00:00 16.2 4 Sudeste 9 Sudeste 0 -- -- 63
2019-10-28 02:00:00 16.4 0 Calma 7 Sudeste 0 -- -- 58
2019-10-28 01:00:00 16.9 4 Sudeste 8 Sur 0 -- -- 56
2019-10-28 00:00:00 17.4 6 Sur 10 Sur 0 -- -- 53
2019-10-27 23:00:00 18.3 4 Sudeste 12 Sudeste 0 -- -- 47
2019-10-27 22:00:00 18.9 4 Sudeste 10 Nordeste 0 -- -- 48
2019-10-27 21:00:00 19 9 Este 9 Nordeste 0 -- -- 52
2019-10-27 20:00:00 19.3 7 Nordeste 10 Este 0 -- -- 50
2019-10-27 19:00:00 20.5 6 Nordeste 9 Este 0 -- -- 46
2019-10-27 18:00:00 22.4 3 Sur 15 Sur 0 -- -- 35
2019-10-27 17:00:00 25.2 9 Sur 18 Sudoeste 0 -- -- 29
2019-10-27 16:00:00 24.9 6 Sur 14 Sudoeste 0 -- -- 37
2019-10-27 15:00:00 25.5 12 Sudoeste 19 Sudoeste 0 -- -- 27
2019-10-27 14:00:00 25.2 4 Sur 17 Sudoeste 0 -- -- 30
2019-10-27 13:00:00 24.6 4 Sudoeste 13 Sudoeste 0 -- -- 31
2019-10-27 12:00:00 23.1 3 Sur 10 Este 0 -- -- 34
2019-10-27 11:00:00 21.4 4 Este 16 Nordeste 0 -- -- 37
2019-10-27 10:00:00 19.9 2 Este 10 Este 0 -- -- 45
2019-10-27 09:00:00 17.1 5 Este 10 Este 0 -- -- 45
2019-10-27 08:00:00 15.5 0 Calma 10 Nordeste 0 -- -- 52
2019-10-27 07:00:00 15.6 3 Este 13 Nordeste 0 -- -- 50
2019-10-27 06:00:00 15.8 12 Este 21 Este 0 -- -- 54
2019-10-27 05:00:00 15.9 16 Nordeste 18 Nordeste 0 -- -- 59
2019-10-27 04:00:00 15.6 15 Nordeste 17 Nordeste 0 -- -- 60
2019-10-27 03:00:00 16.4 14 Nordeste 14 Nordeste 0 -- -- 57
2019-10-27 02:00:00 15.5 9 Este 11 Nordeste 0 -- -- 55
2019-10-27 01:00:00 17.3 9 Este 12 Este 0 -- -- 50
2019-10-27 00:00:00 16.7 12 Este 14 Este 0 -- -- 53
2019-10-26 23:00:00 16.9 11 Este 13 Este 0 -- -- 49
2019-10-26 22:00:00 16.7 10 Este 12 Este 0 -- -- 52
2019-10-26 21:00:00 18.3 8 Nordeste 9 Nordeste 0 -- -- 55
2019-10-26 20:00:00 19.7 4 Nordeste 6 Norte 0 -- -- 51
2019-10-26 19:00:00 23.2 4 Noroeste 14 Sudoeste 0 -- -- 41
2019-10-26 18:00:00 25.2 8 Sudoeste 21 Sur 0 -- -- 32
2019-10-26 17:00:00 25.3 6 Sur 15 Sudeste 0 -- -- 31
2019-10-26 16:00:00 24.7 4 Sudeste 12 Noroeste 0 -- -- 34
2019-10-26 15:00:00 24.4 9 Sur 19 Sudoeste 0 -- -- 37
2019-10-26 14:00:00 23.4 8 Sur 18 Sur 0 -- -- 39
2019-10-26 13:00:00 22.4 8 Sudeste 19 Sudeste 0 -- -- 42
2019-10-26 12:00:00 21.1 11 Sudeste 24 Sudeste 0 -- -- 43
2019-10-26 11:00:00 19.6 11 Este 17 Sudeste 0 -- -- 46
2019-10-26 10:00:00 17.7 8 Este 15 Este 0 -- -- 46
2019-10-26 09:00:00 16.1 7 Este 11 Este 0 -- -- 47
2019-10-26 08:00:00 15.4 7 Este 16 Este 0 -- -- 50
2019-10-26 07:00:00 14.6 10 Este 13 Este 0 -- -- 56
2019-10-26 06:00:00 16.7 9 Este 15 Este 0 -- -- 50
2019-10-26 05:00:00 17.1 9 Este 15 Este 0 -- -- 54
2019-10-26 04:00:00 16.7 10 Este 14 Este 0 -- -- 56
2019-10-26 03:00:00 17.4 6 Este 15 Sudeste 0 -- -- 54
2019-10-26 02:00:00 17.7 9 Este 15 Este 0 -- -- 52
2019-10-26 01:00:00 16.1 12 Este 16 Este 0 -- -- 59
2019-10-26 00:00:00 15.9 14 Este 18 Nordeste 0 -- -- 63
2019-10-25 23:00:00 16.2 16 Nordeste 18 Este 0 -- -- 61
2019-10-25 22:00:00 16 14 Nordeste 15 Nordeste 0 -- -- 63
2019-10-25 21:00:00 16.2 13 Nordeste 19 Nordeste 0 -- -- 64
2019-10-25 20:00:00 17.7 17 Nordeste 21 Nordeste 0 -- -- 58
2019-10-25 19:00:00 19.7 17 Nordeste 22 Nordeste 0 -- -- 53
2019-10-25 18:00:00 21.4 14 Nordeste 21 Nordeste 0 -- -- 49
2019-10-25 17:00:00 21.9 13 Nordeste 20 Nordeste 0 -- -- 46
2019-10-25 16:00:00 21.9 10 Nordeste 19 Nordeste 0 -- -- 47
2019-10-25 15:00:00 21.3 9 Nordeste 18 Este 0 -- -- 47
2019-10-25 14:00:00 20 12 Nordeste 21 Nordeste 0 -- -- 52
2019-10-25 13:00:00 19.8 12 Nordeste 15 Nordeste 0 -- -- 53
2019-10-25 12:00:00 18.1 3 Sur 17 Nordeste 0 -- -- 60
2019-10-25 11:00:00 16.1 13 Nordeste 20 Nordeste 0 -- -- 61
2019-10-25 10:00:00 14 17 Nordeste 24 Este 0 -- -- 68
2019-10-25 09:00:00 11.1 16 Nordeste 20 Nordeste 0 -- -- 77
2019-10-25 08:00:00 10.1 16 Este 17 Este 0 -- -- 79
2019-10-25 07:00:00 10 8 Este 11 Este 0 -- -- 78
2019-10-25 06:00:00 10.8 8 Este 13 Nordeste 0 -- -- 75
2019-10-25 05:00:00 11 10 Este 15 Este 0 -- -- 75
2019-10-25 04:00:00 11.2 10 Este 14 Este 0 -- -- 75
2019-10-25 03:00:00 11.5 7 Este 12 Este 0 -- -- 74
2019-10-25 02:00:00 11.9 8 Este 14 Este 0 -- -- 73
2019-10-25 01:00:00 12.4 8 Este 14 Este 0 -- -- 71
2019-10-25 00:00:00 12.2 9 Este 14 Este 0 -- -- 72
2019-10-24 23:00:00 12.8 7 Sudeste 10 Sudeste 0 -- -- 69
2019-10-24 22:00:00 13.2 2 Oeste 7 Oeste 0 -- -- 65
2019-10-24 21:00:00 13.1 4 Sudoeste 10 Sudoeste 0 -- -- 68
2019-10-24 20:00:00 14.3 6 Sudoeste 15 Sudoeste 0 -- -- 65
2019-10-24 19:00:00 16.4 12 Sudoeste 19 Sudoeste 0 -- -- 58
2019-10-24 18:00:00 18.1 8 Sudoeste 21 Sudoeste 0 -- -- 55
2019-10-24 17:00:00 18.2 10 Oeste 22 Sudoeste 0 -- -- 53
2019-10-24 16:00:00 17.7 10 Sudoeste 23 Sudoeste 0 -- -- 52
2019-10-24 15:00:00 17 10 Oeste 21 Oeste 0 -- -- 55
2019-10-24 14:00:00 15.3 8 Oeste 20 Sudoeste 0 -- -- 60
2019-10-24 13:00:00 13.7 8 Oeste 20 Oeste 0 -- -- 67
2019-10-24 12:00:00 12.2 5 Oeste 13 Sudoeste 0 -- -- 75
2019-10-24 11:00:00 10.1 7 Sudoeste 13 Sudoeste 0 -- -- 88
2019-10-24 10:00:00 8.3 3 Sudoeste 14 Oeste 0 -- -- 95
2019-10-24 09:00:00 7.4 5 Oeste 18 Oeste 0 -- -- 96
2019-10-24 08:00:00 6.9 4 Oeste 14 Sur 0 -- -- 97
2019-10-24 07:00:00 7.2 4 Sudoeste 23 Noroeste 0 -- -- 94
2019-10-24 06:00:00 8 6 Oeste 21 Noroeste 0 -- -- 92
2019-10-24 05:00:00 8.3 7 Oeste 21 Oeste 0 -- -- 95
2019-10-24 04:00:00 8.2 6 Noroeste 14 Oeste 0 -- -- 95
2019-10-24 03:00:00 8.5 3 Oeste 14 Oeste 0 -- -- 92
2019-10-24 02:00:00 8.8 9 Noroeste 21 Oeste 0 -- -- 89
2019-10-24 01:00:00 8.7 8 Oeste 18 Noroeste 0 -- -- 92
2019-10-24 00:00:00 8.8 6 Oeste 19 Oeste 0 -- -- 93
2019-10-23 23:00:00 9 6 Oeste 17 Oeste 0 -- -- 95
2019-10-23 22:00:00 9.2 8 Oeste 21 Noroeste 0 -- -- 97
2019-10-23 21:00:00 9.2 8 Oeste 22 Oeste 0 -- -- 97
2019-10-23 20:00:00 9 10 Oeste 26 Oeste 0 -- -- 96
2019-10-23 19:00:00 9.4 12 Oeste 24 Oeste 0.2 -- -- 97
2019-10-23 18:00:00 9.6 12 Oeste 25 Noroeste 0.8 -- -- 96
2019-10-23 17:00:00 10 12 Oeste 30 Oeste 0.6 -- -- 93
2019-10-23 16:00:00 10.8 12 Oeste 33 Oeste 0 -- -- 86
2019-10-23 15:00:00 11.4 12 Oeste 25 Oeste 0 -- -- 84
2019-10-23 14:00:00 11.3 8 Oeste 26 Oeste 0 -- -- 88
2019-10-23 13:00:00 10.2 10 Oeste 23 Oeste 0 -- -- 93
2019-10-23 12:00:00 9.3 9 Oeste 24 Oeste 0 -- -- 95
2019-10-23 11:00:00 9 8 Oeste 23 Oeste 0.2 -- -- 97
2019-10-23 10:00:00 8.5 6 Oeste 18 Oeste 0 -- -- 98
2019-10-23 09:00:00 8.2 6 Oeste 18 Oeste 0.2 -- -- 98
2019-10-23 08:00:00 8.2 5 Oeste 14 Oeste 0.6 -- -- 97
2019-10-23 07:00:00 8 5 Oeste 20 Oeste 0.2 -- -- 96
2019-10-23 06:00:00 8.1 10 Oeste 27 Oeste 0.2 -- -- 94
2019-10-23 05:00:00 8.6 16 Noroeste 32 Noroeste 0 -- -- 87
2019-10-23 04:00:00 9.1 14 Noroeste 25 Noroeste 0 -- -- 80
2019-10-23 03:00:00 8.1 5 Nordeste 8 Sudeste 0 -- -- 89
2019-10-23 02:00:00 8.1 5 Sudeste 11 Este 0 -- -- 87
2019-10-23 01:00:00 8.5 3 Sur 8 Oeste 0 -- -- 84
2019-10-23 00:00:00 9.1 5 Oeste 14 Noroeste 0 -- -- 81
2019-10-22 23:00:00 9.5 6 Noroeste 13 Oeste 0 -- -- 81
2019-10-22 22:00:00 9.1 5 Norte 8 Norte 0 -- -- 75
2019-10-22 21:00:00 10.5 6 Este 22 Nordeste 0 -- -- 70
2019-10-22 20:00:00 11.4 15 Este 31 Este 0 -- -- 69
2019-10-22 19:00:00 12.9 25 Este 33 Nordeste 0 -- -- 63
2019-10-22 18:00:00 16.3 10 Norte 21 Norte 0 -- -- 47
2019-10-22 17:00:00 16.8 11 Norte 25 Norte 0 -- -- 45
2019-10-22 16:00:00 16.3 12 Nordeste 27 Nordeste 0 -- -- 47
2019-10-22 15:00:00 15.6 13 Nordeste 24 Norte 0 -- -- 53
2019-10-22 14:00:00 14.4 15 Norte 29 Norte 0 -- -- 60
2019-10-22 13:00:00 14.7 16 Nordeste 29 Nordeste 0 -- -- 58
2019-10-22 12:00:00 14.2 20 Nordeste 41 Nordeste 0 -- -- 56
2019-10-22 11:00:00 12.3 23 Nordeste 35 Nordeste 0 -- -- 63
2019-10-22 10:00:00 10.9 23 Nordeste 33 Nordeste 0 -- -- 68
2019-10-22 09:00:00 8.9 19 Nordeste 33 Este 0 -- -- 74
2019-10-22 08:00:00 8.9 24 Nordeste 33 Nordeste 0 -- -- 73
2019-10-22 07:00:00 9.1 25 Nordeste 33 Nordeste 0 -- -- 72
2019-10-22 06:00:00 9.5 24 Nordeste 31 Nordeste 0 -- -- 69
2019-10-22 05:00:00 9.5 18 Nordeste 27 Nordeste 0 -- -- 70
2019-10-22 04:00:00 9.8 21 Nordeste 26 Nordeste 0 -- -- 68
2019-10-22 03:00:00 9.7 19 Nordeste 22 Nordeste 0 -- -- 70
2019-10-22 02:00:00 9.6 16 Nordeste 20 Nordeste 0 -- -- 70
2019-10-22 01:00:00 10.2 17 Nordeste 24 Nordeste 0 -- -- 69
2019-10-22 00:00:00 10.4 19 Nordeste 23 Nordeste 0 -- -- 69
2019-10-21 23:00:00 10.2 18 Nordeste 22 Nordeste 0 -- -- 71
2019-10-21 22:00:00 9.9 14 Nordeste 17 Nordeste 0 -- -- 73
2019-10-21 21:00:00 10.3 11 Nordeste 13 Nordeste 0 -- -- 70
2019-10-21 20:00:00 11.7 7 Nordeste 8 Nordeste 0 -- -- 67
2019-10-21 19:00:00 13.9 0 Calma 4 Sudeste 0 -- -- 59
2019-10-21 18:00:00 14.3 2 Este 12 Sudeste 0 -- -- 58
2019-10-21 17:00:00 13.2 7 Este 24 Este 0.8 -- -- 71
2019-10-21 16:00:00 14 14 Este 24 Este 0 -- -- 61
2019-10-21 15:00:00 15.5 8 Nordeste 15 Nordeste 0 -- -- 58
2019-10-21 14:00:00 15.3 4 Oeste 14 Oeste 0 -- -- 59
2019-10-21 13:00:00 14 5 Sudoeste 12 Sudoeste 0 -- -- 62
2019-10-21 12:00:00 13 4 Sur 8 Sur 0 -- -- 65
2019-10-21 11:00:00 11.4 3 Sur 9 Este 0 -- -- 76
2019-10-21 10:00:00 9.7 4 Este 12 Este 0 -- -- 81
2019-10-21 09:00:00 7.3 11 Este 13 Este 0 -- -- 86
2019-10-21 08:00:00 7 5 Este 13 Este 0 -- -- 85
2019-10-21 07:00:00 7.6 8 Este 13 Este 0 -- -- 84
2019-10-21 06:00:00 7.3 6 Este 10 Este 0 -- -- 86
2019-10-21 05:00:00 7.7 7 Sudeste 10 Sudeste 0 -- -- 84
2019-10-21 04:00:00 7.9 8 Sudeste 11 Este 0 -- -- 84
2019-10-21 03:00:00 8.3 7 Este 11 Sudeste 0 -- -- 82
2019-10-21 02:00:00 8.3 6 Sudeste 11 Este 0 -- -- 82
2019-10-21 01:00:00 8.8 7 Sudeste 10 Sudeste 0 -- -- 80
2019-10-21 00:00:00 9 4 Sudeste 8 Norte 0 -- -- 80
2019-10-20 23:00:00 9.3 6 Norte 10 Norte 0 -- -- 78
2019-10-20 22:00:00 10.3 4 Noroeste 14 Norte 0 -- -- 72
2019-10-20 21:00:00 11 11 Noroeste 14 Norte 0 -- -- 69
2019-10-20 20:00:00 11.5 5 Noroeste 21 Noroeste 0 -- -- 66
2019-10-20 19:00:00 13.3 11 Noroeste 21 Noroeste 0 -- -- 60
2019-10-20 18:00:00 14.3 11 Oeste 27 Noroeste 0 -- -- 59
2019-10-20 17:00:00 14.2 11 Oeste 25 Oeste 0.2 -- -- 62
2019-10-20 16:00:00 13.6 12 Oeste 28 Oeste 0 -- -- 65
2019-10-20 15:00:00 14.1 11 Oeste 26 Oeste 0 -- -- 63
2019-10-20 14:00:00 11.9 9 Oeste 24 Oeste 0 -- -- 74
2019-10-20 13:00:00 11 10 Oeste 25 Oeste 0 -- -- 77
2019-10-20 12:00:00 10.1 11 Oeste 24 Noroeste 0 -- -- 81
2019-10-20 11:00:00 9.8 9 Oeste 23 Sudoeste 0 -- -- 89
2019-10-20 10:00:00 8.9 10 Oeste 23 Oeste 0 -- -- 96
2019-10-20 09:00:00 8.7 10 Sudoeste 24 Sudoeste 0 -- -- 96
2019-10-20 08:00:00 8.8 12 Sudoeste 30 Sudoeste 0 -- -- 95
2019-10-20 07:00:00 9 14 Sudoeste 28 Sudoeste 0 -- -- 95
2019-10-20 06:00:00 9 14 Sudoeste 27 Sudoeste 0 -- -- 95
2019-10-20 05:00:00 9.4 13 Sudoeste 30 Oeste 0 -- -- 94
2019-10-20 04:00:00 9.6 17 Sudoeste 25 Sudoeste 0 -- -- 95
2019-10-20 03:00:00 9.6 15 Sudoeste 31 Sudoeste 0 -- -- 96
2019-10-20 02:00:00 10 16 Sudoeste 30 Sudoeste 0 -- -- 96
2019-10-20 01:00:00 10.6 21 Sudoeste 32 Sudoeste 0 -- -- 96
2019-10-20 00:00:00 10.9 14 Sudoeste 31 Oeste 0 -- -- 96
2019-10-19 23:00:00 11.7 19 Sudoeste 35 Sudoeste 0 -- -- 94
2019-10-19 22:00:00 13.6 16 Oeste 42 Sudoeste 0 -- -- 94
2019-10-19 21:00:00 14.1 22 Sur 31 Sudoeste 0.2 -- -- 98
2019-10-19 20:00:00 13.8 19 Sudoeste 44 Sudoeste 4 -- -- 94
2019-10-19 19:00:00 16 12 Sudoeste 28 Sur 0 -- -- 84
2019-10-19 18:00:00 16.1 21 Sur 34 Sur 0 -- -- 80
2019-10-19 17:00:00 15.8 18 Sur 34 Sur 0 -- -- 86
2019-10-19 16:00:00 14.5 18 Sur 34 Sur 0 -- -- 90
2019-10-19 15:00:00 12.4 10 Sudeste 23 Sudeste 0.2 -- -- 95
2019-10-19 14:00:00 12.3 10 Sur 22 Sudeste 0.4 -- -- 96
2019-10-19 13:00:00 12.9 19 Sur 28 Sudoeste 0 -- -- 83
2019-10-19 12:00:00 13.3 15 Sur 29 Sur 0 -- -- 77
2019-10-19 11:00:00 12.7 8 Sur 14 Sudeste 0 -- -- 83
2019-10-19 10:00:00 11.8 6 Sur 15 Sur 0 -- -- 84
2019-10-19 09:00:00 11.3 6 Sudeste 13 Sudeste 0 -- -- 90
2019-10-19 08:00:00 11.3 10 Sur 18 Sur 0 -- -- 91
2019-10-19 07:00:00 11.6 10 Sudoeste 15 Sudoeste 0 -- -- 89
2019-10-19 06:00:00 12.3 9 Sudoeste 16 Sudoeste 0 -- -- 87
2019-10-19 05:00:00 12.8 9 Sudoeste 20 Sudoeste 0 -- -- 85
2019-10-19 04:00:00 13 13 Sudoeste 21 Sudoeste 0 -- -- 81
2019-10-19 03:00:00 13.1 9 Sur 14 Sur 0 -- -- 81
2019-10-19 02:00:00 13.2 8 Sudoeste 12 Sudoeste 0 -- -- 79
2019-10-19 01:00:00 13.4 9 Sudoeste 13 Sur 0 -- -- 79
2019-10-19 00:00:00 13.8 8 Sudoeste 13 Sur 0 -- -- 77
2019-10-18 23:00:00 14.2 6 Oeste 20 Oeste 0 -- -- 75
2019-10-18 22:00:00 14.3 8 Oeste 23 Sudoeste 0 -- -- 74
2019-10-18 21:00:00 15.5 12 Sudoeste 23 Sudoeste 0 -- -- 71
2019-10-18 20:00:00 16.5 14 Sudoeste 23 Sudoeste 0 -- -- 65
2019-10-18 19:00:00 18.1 14 Sudoeste 32 Sudoeste 0 -- -- 58
2019-10-18 18:00:00 19.3 20 Sudoeste 33 Sudoeste 0 -- -- 55
2019-10-18 17:00:00 19.5 19 Sudoeste 35 Sudoeste 0 -- -- 55
2019-10-18 16:00:00 19.3 21 Sudoeste 39 Sudoeste 0 -- -- 66
2019-10-18 15:00:00 19 26 Sudoeste 39 Sudoeste 0 -- -- 73
2019-10-18 14:00:00 19.5 22 Sudoeste 33 Sudoeste 0 -- -- 76
2019-10-18 13:00:00 17.5 12 Sudoeste 26 Sudoeste 0 -- -- 92
2019-10-18 12:00:00 16 19 Sudoeste 28 Sudoeste 0 -- -- 99
2019-10-18 11:00:00 15.7 18 Sudoeste 28 Sudoeste 0.6 -- -- 100
2019-10-18 10:00:00 15.5 16 Sudoeste 23 Sur 0.2 -- -- 99
2019-10-18 09:00:00 15.3 14 Sudoeste 23 Sur 0.2 -- -- 99
2019-10-18 08:00:00 15.4 13 Sur 23 Sur 0.4 -- -- 99
2019-10-18 07:00:00 15.6 13 Sur 28 Sudoeste 0 -- -- 98
2019-10-18 06:00:00 15.6 15 Sudoeste 26 Sudoeste 0 -- -- 97
2019-10-18 05:00:00 15.6 14 Sudoeste 25 Sur 0 -- -- 98
2019-10-18 04:00:00 15.6 13 Sudoeste 22 Sur 0 -- -- 98
2019-10-18 03:00:00 15.9 14 Sur 26 Sudoeste 0 -- -- 98
2019-10-18 02:00:00 15.9 16 Sudoeste 29 Sudoeste 0 -- -- 99
2019-10-18 01:00:00 16.1 16 Sudoeste 27 Sudoeste 0 -- -- 98
2019-10-18 00:00:00 16 17 Sudoeste 24 Sudoeste 0 -- -- 98
2019-10-17 23:00:00 15.9 15 Sudoeste 21 Sudoeste 0 -- -- 98
2019-10-17 22:00:00 15.8 13 Sudoeste 19 Sur 0.8 -- -- 98
2019-10-17 21:00:00 16.1 12 Sudoeste 22 Sur 0.4 -- -- 95
2019-10-17 20:00:00 16.1 9 Sur 14 Sudoeste 0 -- -- 91
2019-10-17 19:00:00 16 7 Sudoeste 19 Sur 0 -- -- 92
2019-10-17 18:00:00 15.9 9 Sur 16 Sudoeste 0 -- -- 92
2019-10-17 17:00:00 15.1 13 Sudoeste 21 Sur 0 -- -- 95
2019-10-17 16:00:00 14.7 13 Sur 21 Sudoeste 0 -- -- 97
2019-10-17 15:00:00 14.2 10 Sur 19 Sur 0 -- -- 98
2019-10-17 14:00:00 13.6 10 Sur 21 Sur 0.2 -- -- 98
2019-10-17 13:00:00 13.1 12 Sur 19 Sur 0.2 -- -- 97
2019-10-17 12:00:00 13.1 10 Sur 18 Sur 0.2 -- -- 98
2019-10-17 11:00:00 12.2 12 Sudeste 18 Sudeste 1.2 -- -- 97
2019-10-17 10:00:00 11.5 10 Sudeste 18 Sur 1.8 -- -- 96
2019-10-17 09:00:00 11.8 11 Sur 16 Sur 0.8 -- -- 94
2019-10-17 08:00:00 11.6 9 Sudeste 14 Sudeste 1 -- -- 90
2019-10-17 07:00:00 12 8 Sudeste 13 Sur 0 -- -- 81
2019-10-17 06:00:00 12.1 8 Sur 14 Sur 0 -- -- 79
2019-10-17 05:00:00 11.6 7 Sudeste 13 Sudeste 0 -- -- 78
2019-10-17 04:00:00 12 8 Sur 11 Sur 0 -- -- 76
2019-10-17 03:00:00 12.4 6 Sur 17 Sur 0 -- -- 70
2019-10-17 02:00:00 12.6 8 Sudeste 14 Sudeste 0 -- -- 68
2019-10-17 01:00:00 12.9 7 Sudeste 13 Sudeste 0 -- -- 67
2019-10-17 00:00:00 13.3 7 Sudeste 13 Sudeste 0 -- -- 66
2019-10-16 23:00:00 13.9 5 Sur 11 Sur 0 -- -- 65
2019-10-16 22:00:00 14.3 7 Sudoeste 13 Sudoeste 0 -- -- 63
2019-10-16 21:00:00 14.2 8 Sudoeste 14 Sudoeste 0 -- -- 61
2019-10-16 20:00:00 15.4 8 Sudoeste 19 Sudoeste 0 -- -- 56
2019-10-16 19:00:00 17.7 11 Sudoeste 25 Oeste 0 -- -- 48
2019-10-16 18:00:00 19.4 11 Sudoeste 25 Sudoeste 0 -- -- 44
2019-10-16 17:00:00 19.3 11 Sudoeste 26 Sudoeste 0 -- -- 43
2019-10-16 16:00:00 19 10 Oeste 26 Sudoeste 0 -- -- 43
2019-10-16 15:00:00 18.3 13 Sudoeste 28 Sudoeste 0 -- -- 45
2019-10-16 14:00:00 17.1 11 Sudoeste 24 Sudoeste 0 -- -- 53
2019-10-16 13:00:00 15.5 10 Sudoeste 17 Sudoeste 0 -- -- 59
2019-10-16 12:00:00 14.4 6 Sur 13 Sur 0 -- -- 67
2019-10-16 11:00:00 13 6 Sudeste 10 Sudeste 0 -- -- 73
2019-10-16 10:00:00 11.6 6 Sudeste 10 Sudeste 0 -- -- 76
2019-10-16 09:00:00 9.6 8 Sudeste 11 Este 0 -- -- 80
2019-10-16 08:00:00 9.5 7 Sudeste 13 Sudeste 0 -- -- 79
2019-10-16 07:00:00 9.6 5 Sudeste 11 Sudeste 0 -- -- 78
2019-10-16 06:00:00 10 2 Sur 6 Sudeste 0 -- -- 76
2019-10-16 05:00:00 10.4 5 Sur 9 Sudeste 0 -- -- 74
2019-10-16 04:00:00 10.9 6 Sudeste 11 Sudeste 0 -- -- 72
2019-10-16 03:00:00 11.3 6 Sudeste 12 Sudeste 0 -- -- 70
2019-10-16 02:00:00 11.1 6 Sudeste 12 Sudeste 0 -- -- 71
2019-10-16 01:00:00 11.1 9 Sudeste 13 Sudeste 0 -- -- 71
2019-10-16 00:00:00 11.4 7 Sudeste 13 Sudeste 0 -- -- 70
2019-10-15 23:00:00 11.8 6 Sudeste 9 Sudeste 0 -- -- 67
2019-10-15 22:00:00 12 3 Sur 6 Sudoeste 0 -- -- 66
2019-10-15 21:00:00 12.7 3 Oeste 6 Oeste 0 -- -- 60
2019-10-15 20:00:00 13.6 4 Oeste 14 Noroeste 0 -- -- 58
2019-10-15 19:00:00 15.1 6 Oeste 23 Oeste 0 -- -- 54
2019-10-15 18:00:00 16.8 9 Oeste 21 Oeste 0 -- -- 46
2019-10-15 17:00:00 17.5 10 Oeste 22 Oeste 0 -- -- 44
2019-10-15 16:00:00 16.4 6 Noroeste 17 Oeste 0 -- -- 50
2019-10-15 15:00:00 16.6 8 Oeste 18 Oeste 0 -- -- 51
2019-10-15 14:00:00 15.5 8 Oeste 19 Oeste 0 -- -- 55
2019-10-15 13:00:00 14.4 8 Oeste 20 Oeste 0 -- -- 62
2019-10-15 12:00:00 12 7 Sudoeste 12 Sudoeste 0 -- -- 78
2019-10-15 11:00:00 9.7 4 Sudoeste 7 Sudoeste 0 -- -- 85
2019-10-15 10:00:00 8.2 4 Sudeste 9 Sudeste 0 -- -- 91
2019-10-15 09:00:00 6.6 0 Calma 7 Sudeste 0 -- -- 95
2019-10-15 08:00:00 6.2 2 Sudeste 4 Sudeste 0 -- -- 92
2019-10-15 07:00:00 6.5 3 Sur 7 Sur 0 -- -- 91
2019-10-15 06:00:00 6.7 0 Calma 11 Oeste 0 -- -- 89
2019-10-15 05:00:00 6.8 4 Oeste 8 Noroeste 0 -- -- 88
2019-10-15 04:00:00 7.2 4 Noroeste 11 Noroeste 0 -- -- 87
2019-10-15 03:00:00 7.5 3 Sudoeste 11 Noroeste 0 -- -- 87
2019-10-15 02:00:00 7.7 5 Sudoeste 12 Oeste 0 -- -- 89
2019-10-15 01:00:00 8.4 8 Oeste 15 Noroeste 0 -- -- 83
2019-10-15 00:00:00 9.2 7 Noroeste 18 Oeste 0 -- -- 87
2019-10-14 23:00:00 9.9 8 Oeste 21 Oeste 0 -- -- 84
2019-10-14 22:00:00 10.3 9 Oeste 17 Oeste 0 -- -- 88
2019-10-14 21:00:00 11.2 7 Sudoeste 15 Sudoeste 0 -- -- 94
2019-10-14 20:00:00 11.4 6 Oeste 35 Oeste 1.4 -- -- 90
2019-10-14 19:00:00 12.9 13 Sudoeste 26 Sudoeste 0 -- -- 87
2019-10-14 18:00:00 12.4 12 Sudoeste 30 Sudoeste 0 -- -- 91
2019-10-14 17:00:00 12 12 Sudoeste 25 Sudoeste 2.4 -- -- 96
2019-10-14 16:00:00 11.8 11 Oeste 41 Sur 4.6 -- -- 93
2019-10-14 15:00:00 16.1 26 Sudoeste 44 Sudoeste 0 -- -- 63
2019-10-14 14:00:00 15.8 26 Sudoeste 39 Sudoeste 0 -- -- 66
2019-10-14 13:00:00 15.6 20 Sudoeste 45 Sudoeste 0 -- -- 65
2019-10-14 12:00:00 15.1 22 Sudoeste 34 Sudoeste 0 -- -- 75
2019-10-14 11:00:00 13.2 13 Sudoeste 26 Sudoeste 0.2 -- -- 93
2019-10-14 10:00:00 12.9 13 Sudoeste 28 Sudoeste 0.2 -- -- 96
2019-10-14 09:00:00 13.1 16 Sudoeste 36 Sur 2.4 -- -- 91
2019-10-14 08:00:00 14.5 23 Sur 40 Sur 0.4 -- -- 90
2019-10-14 07:00:00 15.3 23 Sudoeste 35 Sur 0 -- -- 82
2019-10-14 06:00:00 15.8 12 Sudoeste 18 Sudoeste 0 -- -- 74
2019-10-14 05:00:00 16.6 12 Sudoeste 24 Sudoeste 0 -- -- 68
2019-10-14 04:00:00 17.4 9 Sudoeste 19 Sur 0 -- -- 57
2019-10-14 03:00:00 18.2 13 Sur 22 Sur 0 -- -- 54
2019-10-14 02:00:00 19.1 11 Sudeste 18 Sudeste 0 -- -- 53
2019-10-14 01:00:00 18.9 10 Sudeste 14 Sudeste 0 -- -- 54
2019-10-14 00:00:00 19.2 7 Sudeste 12 Este 0 -- -- 54